Terminal Aerodrome Forecast
Issued by NWS

Home | Current Version | Previous Version | Text Only | Print | Product List | Glossary On
Versions: 1 2 3 4 5 6 7 8 9 10 11 12 13 14 15 16 17 18 19
000
FTUS43 KEAX 291738
TAFSTJ
TAF
KSTJ 291738Z 2918/3018 01007KT P6SM OVC015
     FM292100 01005KT P6SM BKN025
     FM300500 04003KT 5SM BR OVC012
     FM300900 05002KT 1SM BR OVC005
      TEMPO 3010/3013 1/2SM FG BKN002
     FM301500 05006KT P6SM BKN015=

USA.gov is the U.S. government's official web portal to all federal, state and local government web resources and services.